Аэропорт: Сургут. Сургут

ICAO: USRR

METAR:
2019/01/21 22:30
USRR 212230Z 20005MPS 9999 -SHSN SCT005CB M14/M16 Q1010 R25/39//34 NOSIG RMK QFE752
METAR:
2019/01/21 21:24
TAF TAF USRR 211955Z 2121/2221 21005MPS 4000 -SHSN BKN005 BKN015CB 
      TEMPO 2121/2203 1200 SHSN BR BKN003 BKN015CB